Terminal Aerodrome Forecast
Issued by NWS Wakefield, VA

Home | Current Version | Previous Version | Text Only | Print | Product List | Glossary On
Versions: 1 2 3 4 5 6 7 8 9 10 11 12 13 14 15 16 17 18
276
FTUS41 KAKQ 231411 AAB
TAFORF
TAF AMD
KORF 231411Z 2314/2412 03013KT P6SM SKC
     FM231600 03010KT P6SM SKC
     FM232100 08007KT P6SM SKC
     FM240000 12005KT P6SM SKC=

USA.gov is the U.S. government's official web portal to all federal, state and local government web resources and services.